sensor_id;sensor_type;location;lat;lon;timestamp;P1;durP1;ratioP1;P2;durP2;ratioP2
60088;SDS011;45961;53.574;55.878;2023-03-03T00:00:34;5.30;;;2.80;;
60088;SDS011;45961;53.574;55.878;2023-03-03T00:02:36;6.60;;;3.23;;
60088;SDS011;45961;53.574;55.878;2023-03-03T00:03:37;3.95;;;2.83;;
60088;SDS011;45961;53.574;55.878;2023-03-03T00:04:39;5.43;;;2.92;;
60088;SDS011;45961;53.574;55.878;2023-03-03T00:05:40;6.45;;;3.17;;
60088;SDS011;45961;53.574;55.878;2023-03-03T00:06:43;7.65;;;4.20;;
60088;SDS011;45961;53.574;55.878;2023-03-03T00:07:44;7.50;;;3.78;;
60088;SDS011;45961;53.574;55.878;2023-03-03T00:08:46;4.93;;;3.38;;
60088;SDS011;45961;53.574;55.878;2023-03-03T00:09:48;7.70;;;3.85;;
60088;SDS011;45961;53.574;55.878;2023-03-03T00:10:49;4.28;;;3.08;;
60088;SDS011;45961;53.574;55.878;2023-03-03T00:11:53;6.15;;;3.85;;
60088;SDS011;45961;53.574;55.878;2023-03-03T00:12:56;5.28;;;3.88;;
60088;SDS011;45961;53.574;55.878;2023-03-03T00:13:57;5.55;;;2.97;;
60088;SDS011;45961;53.574;55.878;2023-03-03T00:14:58;5.78;;;3.10;;
60088;SDS011;45961;53.574;55.878;2023-03-03T00:17:27;4.55;;;3.30;;
60088;SDS011;45961;53.574;55.878;2023-03-03T00:18:33;5.57;;;3.03;;
60088;SDS011;45961;53.574;55.878;2023-03-03T00:19:37;6.20;;;2.90;;
60088;SDS011;45961;53.574;55.878;2023-03-03T00:20:45;5.22;;;3.05;;
60088;SDS011;45961;53.574;55.878;2023-03-03T00:21:56;4.72;;;2.58;;
60088;SDS011;45961;53.574;55.878;2023-03-03T00:24:36;4.35;;;2.92;;
60088;SDS011;45961;53.574;55.878;2023-03-03T00:25:37;6.00;;;3.20;;
60088;SDS011;45961;53.574;55.878;2023-03-03T00:26:55;5.70;;;2.72;;
60088;SDS011;45961;53.574;55.878;2023-03-03T00:28:00;4.90;;;2.40;;
60088;SDS011;45961;53.574;55.878;2023-03-03T00:29:28;4.00;;;2.60;;
60088;SDS011;45961;53.574;55.878;2023-03-03T00:30:37;5.10;;;2.80;;
60088;SDS011;45961;53.574;55.878;2023-03-03T00:31:38;6.07;;;3.20;;
60088;SDS011;45961;53.574;55.878;2023-03-03T00:32:43;6.68;;;3.38;;
60088;SDS011;45961;53.574;55.878;2023-03-03T00:33:51;5.05;;;3.17;;
60088;SDS011;45961;53.574;55.878;2023-03-03T00:34:55;5.60;;;4.00;;
60088;SDS011;45961;53.574;55.878;2023-03-03T00:36:21;7.18;;;3.33;;
60088;SDS011;45961;53.574;55.878;2023-03-03T00:37:32;6.25;;;3.35;;
60088;SDS011;45961;53.574;55.878;2023-03-03T00:38:34;3.95;;;2.92;;
60088;SDS011;45961;53.574;55.878;2023-03-03T00:39:37;9.95;;;3.85;;
60088;SDS011;45961;53.574;55.878;2023-03-03T00:40:39;6.28;;;3.45;;
60088;SDS011;45961;53.574;55.878;2023-03-03T00:41:40;7.53;;;3.45;;
60088;SDS011;45961;53.574;55.878;2023-03-03T00:42:45;7.50;;;3.75;;
60088;SDS011;45961;53.574;55.878;2023-03-03T00:43:59;5.18;;;3.40;;
60088;SDS011;45961;53.574;55.878;2023-03-03T00:45:01;5.32;;;3.25;;
60088;SDS011;45961;53.574;55.878;2023-03-03T00:46:18;6.35;;;3.72;;
60088;SDS011;45961;53.574;55.878;2023-03-03T00:47:24;5.07;;;3.38;;
60088;SDS011;45961;53.574;55.878;2023-03-03T00:50:36;5.05;;;3.40;;
60088;SDS011;45961;53.574;55.878;2023-03-03T00:51:42;5.20;;;3.22;;
60088;SDS011;45961;53.574;55.878;2023-03-03T00:52:45;6.65;;;4.05;;
60088;SDS011;45961;53.574;55.878;2023-03-03T00:54:11;7.80;;;4.03;;
60088;SDS011;45961;53.574;55.878;2023-03-03T00:55:12;6.93;;;3.45;;
60088;SDS011;45961;53.574;55.878;2023-03-03T00:56:13;6.28;;;2.92;;
60088;SDS011;45961;53.574;55.878;2023-03-03T00:57:14;9.57;;;4.63;;
60088;SDS011;45961;53.574;55.878;2023-03-03T00:58:17;7.50;;;3.90;;
60088;SDS011;45961;53.574;55.878;2023-03-03T00:59:21;6.75;;;4.15;;
60088;SDS011;45961;53.574;55.878;2023-03-03T01:00:22;5.72;;;3.72;;
60088;SDS011;45961;53.574;55.878;2023-03-03T01:01:23;6.78;;;4.10;;
60088;SDS011;45961;53.574;55.878;2023-03-03T01:02:27;6.72;;;4.13;;
60088;SDS011;45961;53.574;55.878;2023-03-03T01:03:28;7.22;;;3.83;;
60088;SDS011;45961;53.574;55.878;2023-03-03T01:04:30;7.57;;;3.67;;
60088;SDS011;45961;53.574;55.878;2023-03-03T01:05:43;4.78;;;3.35;;
60088;SDS011;45961;53.574;55.878;2023-03-03T01:06:47;6.20;;;3.80;;
60088;SDS011;45961;53.574;55.878;2023-03-03T01:07:51;11.38;;;3.60;;
60088;SDS011;45961;53.574;55.878;2023-03-03T01:08:52;5.90;;;3.50;;
60088;SDS011;45961;53.574;55.878;2023-03-03T01:09:56;5.78;;;3.78;;
60088;SDS011;45961;53.574;55.878;2023-03-03T01:11:05;6.68;;;4.10;;
60088;SDS011;45961;53.574;55.878;2023-03-03T01:12:14;8.80;;;3.88;;
60088;SDS011;45961;53.574;55.878;2023-03-03T01:13:15;6.57;;;3.50;;
60088;SDS011;45961;53.574;55.878;2023-03-03T01:14:18;7.10;;;3.55;;
60088;SDS011;45961;53.574;55.878;2023-03-03T01:15:19;7.85;;;3.40;;
60088;SDS011;45961;53.574;55.878;2023-03-03T01:16:21;6.03;;;3.53;;
60088;SDS011;45961;53.574;55.878;2023-03-03T01:18:23;6.88;;;3.83;;
60088;SDS011;45961;53.574;55.878;2023-03-03T01:19:25;6.95;;;4.03;;
60088;SDS011;45961;53.574;55.878;2023-03-03T01:20:26;7.22;;;3.75;;
60088;SDS011;45961;53.574;55.878;2023-03-03T01:21:27;8.45;;;3.92;;
60088;SDS011;45961;53.574;55.878;2023-03-03T01:22:28;6.35;;;3.55;;
60088;SDS011;45961;53.574;55.878;2023-03-03T01:23:29;7.25;;;3.22;;
60088;SDS011;45961;53.574;55.878;2023-03-03T01:24:31;7.93;;;3.30;;
60088;SDS011;45961;53.574;55.878;2023-03-03T01:26:33;6.43;;;3.50;;
60088;SDS011;45961;53.574;55.878;2023-03-03T01:27:34;6.47;;;3.70;;
60088;SDS011;45961;53.574;55.878;2023-03-03T01:28:35;7.43;;;3.65;;
60088;SDS011;45961;53.574;55.878;2023-03-03T01:29:36;7.93;;;3.72;;
60088;SDS011;45961;53.574;55.878;2023-03-03T01:30:37;9.68;;;4.18;;
60088;SDS011;45961;53.574;55.878;2023-03-03T01:31:38;6.25;;;3.95;;
60088;SDS011;45961;53.574;55.878;2023-03-03T01:32:39;7.43;;;3.63;;
60088;SDS011;45961;53.574;55.878;2023-03-03T01:33:40;8.15;;;4.25;;
60088;SDS011;45961;53.574;55.878;2023-03-03T01:35:46;6.43;;;3.45;;
60088;SDS011;45961;53.574;55.878;2023-03-03T01:36:47;5.85;;;3.80;;
60088;SDS011;45961;53.574;55.878;2023-03-03T01:37:48;7.90;;;3.88;;
60088;SDS011;45961;53.574;55.878;2023-03-03T01:38:49;9.63;;;4.28;;
60088;SDS011;45961;53.574;55.878;2023-03-03T01:39:52;6.07;;;3.70;;
60088;SDS011;45961;53.574;55.878;2023-03-03T01:40:55;6.03;;;4.10;;
60088;SDS011;45961;53.574;55.878;2023-03-03T01:42:01;4.88;;;3.83;;
60088;SDS011;45961;53.574;55.878;2023-03-03T01:43:03;7.53;;;4.63;;
60088;SDS011;45961;53.574;55.878;2023-03-03T01:44:05;6.65;;;3.78;;
60088;SDS011;45961;53.574;55.878;2023-03-03T01:47:34;8.20;;;3.67;;
60088;SDS011;45961;53.574;55.878;2023-03-03T01:48:35;5.47;;;3.70;;
60088;SDS011;45961;53.574;55.878;2023-03-03T01:51:05;7.25;;;3.90;;
60088;SDS011;45961;53.574;55.878;2023-03-03T01:52:20;6.50;;;3.72;;
60088;SDS011;45961;53.574;55.878;2023-03-03T01:53:38;6.80;;;4.18;;
60088;SDS011;45961;53.574;55.878;2023-03-03T01:54:43;6.43;;;4.07;;
60088;SDS011;45961;53.574;55.878;2023-03-03T01:55:50;5.63;;;3.17;;
60088;SDS011;45961;53.574;55.878;2023-03-03T01:56:53;7.97;;;4.13;;
60088;SDS011;45961;53.574;55.878;2023-03-03T01:58:00;6.22;;;3.97;;
60088;SDS011;45961;53.574;55.878;2023-03-03T01:59:41;7.95;;;4.30;;
60088;SDS011;45961;53.574;55.878;2023-03-03T02:00:37;8.38;;;3.85;;
60088;SDS011;45961;53.574;55.878;2023-03-03T02:01:40;6.18;;;3.97;;
60088;SDS011;45961;53.574;55.878;2023-03-03T02:02:42;6.15;;;3.83;;
60088;SDS011;45961;53.574;55.878;2023-03-03T02:03:45;6.18;;;4.00;;
60088;SDS011;45961;53.574;55.878;2023-03-03T02:04:46;9.40;;;4.32;;
60088;SDS011;45961;53.574;55.878;2023-03-03T02:05:49;6.55;;;3.30;;
60088;SDS011;45961;53.574;55.878;2023-03-03T02:06:56;7.72;;;4.07;;
60088;SDS011;45961;53.574;55.878;2023-03-03T02:08:01;7.15;;;3.17;;
60088;SDS011;45961;53.574;55.878;2023-03-03T02:09:08;6.25;;;4.32;;
60088;SDS011;45961;53.574;55.878;2023-03-03T02:10:11;6.55;;;4.15;;
60088;SDS011;45961;53.574;55.878;2023-03-03T02:11:15;6.85;;;3.88;;
60088;SDS011;45961;53.574;55.878;2023-03-03T02:12:16;5.82;;;3.90;;
60088;SDS011;45961;53.574;55.878;2023-03-03T02:13:19;5.00;;;4.20;;
60088;SDS011;45961;53.574;55.878;2023-03-03T02:14:20;8.75;;;3.83;;
60088;SDS011;45961;53.574;55.878;2023-03-03T02:16:25;6.95;;;4.20;;
60088;SDS011;45961;53.574;55.878;2023-03-03T02:17:26;6.93;;;3.60;;
60088;SDS011;45961;53.574;55.878;2023-03-03T02:18:27;6.25;;;3.95;;
60088;SDS011;45961;53.574;55.878;2023-03-03T02:20:16;6.45;;;3.63;;
60088;SDS011;45961;53.574;55.878;2023-03-03T02:21:18;8.10;;;3.97;;
60088;SDS011;45961;53.574;55.878;2023-03-03T02:22:22;6.53;;;3.92;;
60088;SDS011;45961;53.574;55.878;2023-03-03T02:24:38;7.05;;;3.92;;
60088;SDS011;45961;53.574;55.878;2023-03-03T02:26:56;7.25;;;3.58;;
60088;SDS011;45961;53.574;55.878;2023-03-03T02:27:57;6.30;;;4.00;;
60088;SDS011;45961;53.574;55.878;2023-03-03T02:29:00;7.85;;;3.80;;
60088;SDS011;45961;53.574;55.878;2023-03-03T02:30:16;4.82;;;3.42;;
60088;SDS011;45961;53.574;55.878;2023-03-03T02:31:20;6.50;;;3.53;;
60088;SDS011;45961;53.574;55.878;2023-03-03T02:32:22;8.45;;;4.45;;
60088;SDS011;45961;53.574;55.878;2023-03-03T02:33:24;8.85;;;4.15;;
60088;SDS011;45961;53.574;55.878;2023-03-03T02:34:25;9.75;;;4.32;;
60088;SDS011;45961;53.574;55.878;2023-03-03T02:35:28;7.00;;;4.68;;
60088;SDS011;45961;53.574;55.878;2023-03-03T02:36:32;7.18;;;3.80;;
60088;SDS011;45961;53.574;55.878;2023-03-03T02:37:35;8.32;;;4.38;;
60088;SDS011;45961;53.574;55.878;2023-03-03T02:38:58;7.28;;;4.13;;
60088;SDS011;45961;53.574;55.878;2023-03-03T02:40:27;7.13;;;3.90;;
60088;SDS011;45961;53.574;55.878;2023-03-03T02:42:53;7.93;;;4.07;;
60088;SDS011;45961;53.574;55.878;2023-03-03T02:45:07;7.38;;;4.15;;
60088;SDS011;45961;53.574;55.878;2023-03-03T02:47:09;8.00;;;3.73;;
60088;SDS011;45961;53.574;55.878;2023-03-03T02:48:10;5.57;;;3.97;;
60088;SDS011;45961;53.574;55.878;2023-03-03T02:49:13;6.55;;;4.07;;
60088;SDS011;45961;53.574;55.878;2023-03-03T02:50:15;7.28;;;4.28;;
60088;SDS011;45961;53.574;55.878;2023-03-03T02:52:18;4.88;;;3.22;;
60088;SDS011;45961;53.574;55.878;2023-03-03T02:53:21;8.48;;;4.38;;
60088;SDS011;45961;53.574;55.878;2023-03-03T02:54:22;6.90;;;3.63;;
60088;SDS011;45961;53.574;55.878;2023-03-03T02:55:25;8.00;;;4.00;;
60088;SDS011;45961;53.574;55.878;2023-03-03T02:56:26;8.10;;;4.80;;
60088;SDS011;45961;53.574;55.878;2023-03-03T02:57:27;6.18;;;4.03;;
60088;SDS011;45961;53.574;55.878;2023-03-03T02:58:29;7.13;;;4.40;;
60088;SDS011;45961;53.574;55.878;2023-03-03T02:59:31;6.82;;;3.67;;
60088;SDS011;45961;53.574;55.878;2023-03-03T03:00:39;9.43;;;4.05;;
60088;SDS011;45961;53.574;55.878;2023-03-03T03:01:40;8.73;;;4.35;;
60088;SDS011;45961;53.574;55.878;2023-03-03T03:02:45;6.75;;;4.10;;
60088;SDS011;45961;53.574;55.878;2023-03-03T03:04:51;7.45;;;3.92;;
60088;SDS011;45961;53.574;55.878;2023-03-03T03:05:56;7.90;;;4.22;;
60088;SDS011;45961;53.574;55.878;2023-03-03T03:06:59;8.35;;;4.28;;
60088;SDS011;45961;53.574;55.878;2023-03-03T03:08:02;7.47;;;3.95;;
60088;SDS011;45961;53.574;55.878;2023-03-03T03:09:04;7.45;;;4.22;;
60088;SDS011;45961;53.574;55.878;2023-03-03T03:10:07;6.25;;;4.15;;
60088;SDS011;45961;53.574;55.878;2023-03-03T03:11:11;8.32;;;4.22;;
60088;SDS011;45961;53.574;55.878;2023-03-03T03:12:13;7.18;;;4.22;;
60088;SDS011;45961;53.574;55.878;2023-03-03T03:13:16;7.45;;;3.70;;
60088;SDS011;45961;53.574;55.878;2023-03-03T03:14:18;9.07;;;4.55;;
60088;SDS011;45961;53.574;55.878;2023-03-03T03:16:20;9.63;;;4.93;;
60088;SDS011;45961;53.574;55.878;2023-03-03T03:17:21;9.95;;;4.82;;
60088;SDS011;45961;53.574;55.878;2023-03-03T03:18:23;6.75;;;4.15;;
60088;SDS011;45961;53.574;55.878;2023-03-03T03:19:24;8.00;;;5.10;;
60088;SDS011;45961;53.574;55.878;2023-03-03T03:20:25;9.45;;;4.40;;
60088;SDS011;45961;53.574;55.878;2023-03-03T03:21:27;8.40;;;4.95;;
60088;SDS011;45961;53.574;55.878;2023-03-03T03:22:28;6.80;;;4.07;;
60088;SDS011;45961;53.574;55.878;2023-03-03T03:23:29;6.68;;;5.03;;
60088;SDS011;45961;53.574;55.878;2023-03-03T03:24:31;9.00;;;3.60;;
60088;SDS011;45961;53.574;55.878;2023-03-03T03:25:36;10.10;;;4.25;;
60088;SDS011;45961;53.574;55.878;2023-03-03T03:26:45;7.32;;;4.38;;
60088;SDS011;45961;53.574;55.878;2023-03-03T03:27:46;10.65;;;4.68;;
60088;SDS011;45961;53.574;55.878;2023-03-03T03:28:48;7.35;;;4.47;;
60088;SDS011;45961;53.574;55.878;2023-03-03T03:29:50;11.23;;;4.93;;
60088;SDS011;45961;53.574;55.878;2023-03-03T03:30:52;6.70;;;3.80;;
60088;SDS011;45961;53.574;55.878;2023-03-03T03:31:54;8.00;;;4.35;;
60088;SDS011;45961;53.574;55.878;2023-03-03T03:32:55;7.20;;;4.72;;
60088;SDS011;45961;53.574;55.878;2023-03-03T03:33:57;7.93;;;4.40;;
60088;SDS011;45961;53.574;55.878;2023-03-03T03:35:00;7.50;;;3.92;;
60088;SDS011;45961;53.574;55.878;2023-03-03T03:36:04;8.48;;;4.60;;
60088;SDS011;45961;53.574;55.878;2023-03-03T03:37:06;8.45;;;4.20;;
60088;SDS011;45961;53.574;55.878;2023-03-03T03:38:10;9.27;;;4.65;;
60088;SDS011;45961;53.574;55.878;2023-03-03T03:39:12;7.18;;;4.43;;
60088;SDS011;45961;53.574;55.878;2023-03-03T03:40:16;8.93;;;3.85;;
60088;SDS011;45961;53.574;55.878;2023-03-03T03:42:18;5.87;;;3.93;;
60088;SDS011;45961;53.574;55.878;2023-03-03T03:43:21;6.53;;;3.60;;
60088;SDS011;45961;53.574;55.878;2023-03-03T03:44:22;7.38;;;3.28;;
60088;SDS011;45961;53.574;55.878;2023-03-03T03:45:25;7.90;;;4.35;;
60088;SDS011;45961;53.574;55.878;2023-03-03T03:46:26;7.70;;;4.55;;
60088;SDS011;45961;53.574;55.878;2023-03-03T03:47:28;7.07;;;4.03;;
60088;SDS011;45961;53.574;55.878;2023-03-03T03:49:30;7.35;;;3.80;;
60088;SDS011;45961;53.574;55.878;2023-03-03T03:50:32;11.65;;;4.85;;
60088;SDS011;45961;53.574;55.878;2023-03-03T03:52:35;8.63;;;4.25;;
60088;SDS011;45961;53.574;55.878;2023-03-03T03:53:37;10.20;;;5.00;;
60088;SDS011;45961;53.574;55.878;2023-03-03T03:54:38;8.30;;;4.35;;
60088;SDS011;45961;53.574;55.878;2023-03-03T03:55:39;10.88;;;4.15;;
60088;SDS011;45961;53.574;55.878;2023-03-03T03:56:40;9.05;;;4.55;;
60088;SDS011;45961;53.574;55.878;2023-03-03T03:57:41;7.90;;;3.80;;
60088;SDS011;45961;53.574;55.878;2023-03-03T03:59:48;9.75;;;4.55;;
60088;SDS011;45961;53.574;55.878;2023-03-03T04:00:49;8.82;;;4.22;;
60088;SDS011;45961;53.574;55.878;2023-03-03T04:01:51;6.38;;;3.50;;
60088;SDS011;45961;53.574;55.878;2023-03-03T04:02:54;7.78;;;4.18;;
60088;SDS011;45961;53.574;55.878;2023-03-03T04:03:55;7.30;;;4.38;;
60088;SDS011;45961;53.574;55.878;2023-03-03T04:04:58;8.43;;;4.38;;
60088;SDS011;45961;53.574;55.878;2023-03-03T04:05:59;12.43;;;5.50;;
60088;SDS011;45961;53.574;55.878;2023-03-03T04:08:01;11.07;;;4.50;;
60088;SDS011;45961;53.574;55.878;2023-03-03T04:09:02;8.20;;;4.43;;
60088;SDS011;45961;53.574;55.878;2023-03-03T04:10:04;7.03;;;4.63;;
60088;SDS011;45961;53.574;55.878;2023-03-03T04:11:06;13.07;;;4.95;;
60088;SDS011;45961;53.574;55.878;2023-03-03T04:12:07;11.40;;;4.82;;
60088;SDS011;45961;53.574;55.878;2023-03-03T04:13:09;8.95;;;4.65;;
60088;SDS011;45961;53.574;55.878;2023-03-03T04:14:10;6.22;;;4.45;;
60088;SDS011;45961;53.574;55.878;2023-03-03T04:15:11;6.97;;;4.57;;
60088;SDS011;45961;53.574;55.878;2023-03-03T04:16:13;7.45;;;4.43;;
60088;SDS011;45961;53.574;55.878;2023-03-03T04:17:16;8.40;;;4.15;;
60088;SDS011;45961;53.574;55.878;2023-03-03T04:18:19;9.95;;;4.57;;
60088;SDS011;45961;53.574;55.878;2023-03-03T04:19:20;8.48;;;4.40;;
60088;SDS011;45961;53.574;55.878;2023-03-03T04:20:23;10.05;;;4.45;;
60088;SDS011;45961;53.574;55.878;2023-03-03T04:21:25;7.93;;;4.22;;
60088;SDS011;45961;53.574;55.878;2023-03-03T04:22:29;8.23;;;4.28;;
60088;SDS011;45961;53.574;55.878;2023-03-03T04:23:35;6.03;;;4.03;;
60088;SDS011;45961;53.574;55.878;2023-03-03T04:24:37;5.93;;;4.25;;
60088;SDS011;45961;53.574;55.878;2023-03-03T04:25:38;8.95;;;4.53;;
60088;SDS011;45961;53.574;55.878;2023-03-03T04:26:46;8.52;;;5.15;;
60088;SDS011;45961;53.574;55.878;2023-03-03T04:27:47;5.60;;;4.13;;
60088;SDS011;45961;53.574;55.878;2023-03-03T04:28:49;7.82;;;4.10;;
60088;SDS011;45961;53.574;55.878;2023-03-03T04:29:51;7.57;;;4.15;;
60088;SDS011;45961;53.574;55.878;2023-03-03T04:30:52;6.40;;;4.20;;
60088;SDS011;45961;53.574;55.878;2023-03-03T04:31:55;8.98;;;4.15;;
60088;SDS011;45961;53.574;55.878;2023-03-03T04:32:56;7.18;;;4.13;;
60088;SDS011;45961;53.574;55.878;2023-03-03T04:34:00;7.03;;;4.53;;
60088;SDS011;45961;53.574;55.878;2023-03-03T04:35:01;9.30;;;4.47;;
60088;SDS011;45961;53.574;55.878;2023-03-03T04:36:04;7.18;;;4.13;;
60088;SDS011;45961;53.574;55.878;2023-03-03T04:37:06;9.85;;;4.50;;
60088;SDS011;45961;53.574;55.878;2023-03-03T04:38:07;9.95;;;4.82;;
60088;SDS011;45961;53.574;55.878;2023-03-03T04:39:09;10.80;;;4.38;;
60088;SDS011;45961;53.574;55.878;2023-03-03T04:40:12;8.10;;;4.30;;
60088;SDS011;45961;53.574;55.878;2023-03-03T04:41:15;7.85;;;5.15;;
60088;SDS011;45961;53.574;55.878;2023-03-03T04:42:16;6.72;;;4.25;;
60088;SDS011;45961;53.574;55.878;2023-03-03T04:43:18;9.38;;;4.45;;
60088;SDS011;45961;53.574;55.878;2023-03-03T04:46:22;6.75;;;3.63;;
60088;SDS011;45961;53.574;55.878;2023-03-03T04:47:24;6.88;;;3.78;;
60088;SDS011;45961;53.574;55.878;2023-03-03T04:48:26;6.03;;;3.88;;
60088;SDS011;45961;53.574;55.878;2023-03-03T04:49:28;8.88;;;4.68;;
60088;SDS011;45961;53.574;55.878;2023-03-03T04:50:29;7.18;;;3.95;;
60088;SDS011;45961;53.574;55.878;2023-03-03T04:51:30;8.18;;;4.07;;
60088;SDS011;45961;53.574;55.878;2023-03-03T04:52:32;6.15;;;3.80;;
60088;SDS011;45961;53.574;55.878;2023-03-03T04:53:33;7.82;;;4.55;;
60088;SDS011;45961;53.574;55.878;2023-03-03T04:54:36;8.45;;;4.35;;
60088;SDS011;45961;53.574;55.878;2023-03-03T04:55:37;6.15;;;3.90;;
60088;SDS011;45961;53.574;55.878;2023-03-03T04:56:39;9.93;;;4.25;;
60088;SDS011;45961;53.574;55.878;2023-03-03T04:57:40;9.10;;;4.50;;
60088;SDS011;45961;53.574;55.878;2023-03-03T04:59:42;6.68;;;4.65;;
60088;SDS011;45961;53.574;55.878;2023-03-03T05:00:46;6.35;;;3.53;;
60088;SDS011;45961;53.574;55.878;2023-03-03T05:01:52;7.35;;;4.05;;
60088;SDS011;45961;53.574;55.878;2023-03-03T05:02:54;6.55;;;3.92;;
60088;SDS011;45961;53.574;55.878;2023-03-03T05:03:55;10.02;;;4.35;;
60088;SDS011;45961;53.574;55.878;2023-03-03T05:04:56;10.55;;;4.80;;
60088;SDS011;45961;53.574;55.878;2023-03-03T05:05:57;8.15;;;4.25;;
60088;SDS011;45961;53.574;55.878;2023-03-03T05:06:58;7.75;;;4.60;;
60088;SDS011;45961;53.574;55.878;2023-03-03T05:07:59;7.95;;;4.40;;
60088;SDS011;45961;53.574;55.878;2023-03-03T05:09:00;9.27;;;4.47;;
60088;SDS011;45961;53.574;55.878;2023-03-03T05:10:01;9.65;;;4.60;;
60088;SDS011;45961;53.574;55.878;2023-03-03T05:11:05;6.13;;;3.97;;
60088;SDS011;45961;53.574;55.878;2023-03-03T05:12:06;8.32;;;4.40;;
60088;SDS011;45961;53.574;55.878;2023-03-03T05:13:07;8.57;;;4.63;;
60088;SDS011;45961;53.574;55.878;2023-03-03T05:14:08;8.65;;;4.57;;
60088;SDS011;45961;53.574;55.878;2023-03-03T05:15:10;8.77;;;3.70;;
60088;SDS011;45961;53.574;55.878;2023-03-03T05:16:11;6.63;;;4.65;;
60088;SDS011;45961;53.574;55.878;2023-03-03T05:17:12;9.85;;;4.70;;
60088;SDS011;45961;53.574;55.878;2023-03-03T05:18:13;7.32;;;4.82;;
60088;SDS011;45961;53.574;55.878;2023-03-03T05:19:14;6.38;;;4.07;;
60088;SDS011;45961;53.574;55.878;2023-03-03T05:20:15;8.27;;;4.93;;
60088;SDS011;45961;53.574;55.878;2023-03-03T05:21:16;6.38;;;4.55;;
60088;SDS011;45961;53.574;55.878;2023-03-03T05:22:17;7.10;;;4.20;;
60088;SDS011;45961;53.574;55.878;2023-03-03T05:23:18;9.55;;;4.80;;
60088;SDS011;45961;53.574;55.878;2023-03-03T05:24:20;10.13;;;5.03;;
60088;SDS011;45961;53.574;55.878;2023-03-03T05:25:21;9.10;;;5.55;;
60088;SDS011;45961;53.574;55.878;2023-03-03T05:26:23;7.40;;;4.57;;
60088;SDS011;45961;53.574;55.878;2023-03-03T05:27:24;7.63;;;4.72;;
60088;SDS011;45961;53.574;55.878;2023-03-03T05:28:24;8.23;;;4.68;;
60088;SDS011;45961;53.574;55.878;2023-03-03T05:29:25;11.95;;;5.15;;
60088;SDS011;45961;53.574;55.878;2023-03-03T05:30:28;11.50;;;5.03;;
60088;SDS011;45961;53.574;55.878;2023-03-03T05:31:29;8.43;;;4.85;;
60088;SDS011;45961;53.574;55.878;2023-03-03T05:32:29;9.55;;;4.63;;
60088;SDS011;45961;53.574;55.878;2023-03-03T05:33:31;8.70;;;4.90;;
60088;SDS011;45961;53.574;55.878;2023-03-03T05:34:32;7.70;;;5.18;;
60088;SDS011;45961;53.574;55.878;2023-03-03T05:36:34;9.43;;;4.90;;
60088;SDS011;45961;53.574;55.878;2023-03-03T05:37:35;9.70;;;6.05;;
60088;SDS011;45961;53.574;55.878;2023-03-03T05:38:36;7.03;;;4.35;;
60088;SDS011;45961;53.574;55.878;2023-03-03T05:39:37;10.07;;;5.35;;
60088;SDS011;45961;53.574;55.878;2023-03-03T05:40:38;6.80;;;4.15;;
60088;SDS011;45961;53.574;55.878;2023-03-03T05:41:39;9.70;;;5.10;;
60088;SDS011;45961;53.574;55.878;2023-03-03T05:42:40;7.75;;;4.38;;
60088;SDS011;45961;53.574;55.878;2023-03-03T05:43:41;8.90;;;5.15;;
60088;SDS011;45961;53.574;55.878;2023-03-03T05:45:43;8.63;;;4.75;;
60088;SDS011;45961;53.574;55.878;2023-03-03T05:46:44;8.38;;;4.63;;
60088;SDS011;45961;53.574;55.878;2023-03-03T05:47:48;6.57;;;5.05;;
60088;SDS011;45961;53.574;55.878;2023-03-03T05:48:52;9.52;;;4.63;;
60088;SDS011;45961;53.574;55.878;2023-03-03T05:49:53;7.70;;;4.30;;
60088;SDS011;45961;53.574;55.878;2023-03-03T05:50:57;9.20;;;4.57;;
60088;SDS011;45961;53.574;55.878;2023-03-03T05:51:59;9.30;;;5.65;;
60088;SDS011;45961;53.574;55.878;2023-03-03T05:53:00;9.07;;;4.60;;
60088;SDS011;45961;53.574;55.878;2023-03-03T05:54:00;13.07;;;4.88;;
60088;SDS011;45961;53.574;55.878;2023-03-03T05:55:02;8.77;;;4.82;;
60088;SDS011;45961;53.574;55.878;2023-03-03T05:56:06;7.80;;;4.57;;
60088;SDS011;45961;53.574;55.878;2023-03-03T05:57:07;8.88;;;4.55;;
60088;SDS011;45961;53.574;55.878;2023-03-03T05:58:08;7.00;;;4.28;;
60088;SDS011;45961;53.574;55.878;2023-03-03T05:59:09;7.22;;;4.75;;
60088;SDS011;45961;53.574;55.878;2023-03-03T06:00:10;8.55;;;4.60;;
60088;SDS011;45961;53.574;55.878;2023-03-03T06:01:13;8.27;;;4.50;;
60088;SDS011;45961;53.574;55.878;2023-03-03T06:02:14;13.65;;;5.25;;
60088;SDS011;45961;53.574;55.878;2023-03-03T06:03:18;9.18;;;5.07;;
60088;SDS011;45961;53.574;55.878;2023-03-03T06:05:20;8.82;;;4.75;;
60088;SDS011;45961;53.574;55.878;2023-03-03T06:06:21;8.48;;;4.47;;
60088;SDS011;45961;53.574;55.878;2023-03-03T06:07:22;8.30;;;4.75;;
60088;SDS011;45961;53.574;55.878;2023-03-03T06:08:26;12.20;;;5.30;;
60088;SDS011;45961;53.574;55.878;2023-03-03T06:09:27;6.57;;;4.85;;
60088;SDS011;45961;53.574;55.878;2023-03-03T06:11:32;9.48;;;5.22;;
60088;SDS011;45961;53.574;55.878;2023-03-03T06:12:33;6.85;;;4.38;;
60088;SDS011;45961;53.574;55.878;2023-03-03T06:13:35;10.00;;;4.72;;
60088;SDS011;45961;53.574;55.878;2023-03-03T06:14:36;9.30;;;4.80;;
60088;SDS011;45961;53.574;55.878;2023-03-03T06:15:37;7.60;;;4.50;;
60088;SDS011;45961;53.574;55.878;2023-03-03T06:16:38;6.97;;;4.53;;
60088;SDS011;45961;53.574;55.878;2023-03-03T06:18:40;8.47;;;4.47;;
60088;SDS011;45961;53.574;55.878;2023-03-03T06:19:41;8.35;;;4.75;;
60088;SDS011;45961;53.574;55.878;2023-03-03T06:20:42;7.82;;;4.72;;
60088;SDS011;45961;53.574;55.878;2023-03-03T06:22:45;6.43;;;4.23;;
60088;SDS011;45961;53.574;55.878;2023-03-03T06:23:46;10.82;;;4.70;;
60088;SDS011;45961;53.574;55.878;2023-03-03T06:24:47;7.65;;;5.25;;
60088;SDS011;45961;53.574;55.878;2023-03-03T06:25:48;7.25;;;4.35;;
60088;SDS011;45961;53.574;55.878;2023-03-03T06:26:50;9.15;;;5.25;;
60088;SDS011;45961;53.574;55.878;2023-03-03T06:27:51;6.97;;;4.80;;
60088;SDS011;45961;53.574;55.878;2023-03-03T06:28:52;8.23;;;4.70;;
60088;SDS011;45961;53.574;55.878;2023-03-03T06:29:54;7.75;;;5.07;;
60088;SDS011;45961;53.574;55.878;2023-03-03T06:30:55;11.65;;;4.97;;
60088;SDS011;45961;53.574;55.878;2023-03-03T06:31:57;9.85;;;5.22;;
60088;SDS011;45961;53.574;55.878;2023-03-03T06:32:59;9.85;;;5.38;;
60088;SDS011;45961;53.574;55.878;2023-03-03T06:34:00;8.27;;;4.70;;
60088;SDS011;45961;53.574;55.878;2023-03-03T06:35:01;9.52;;;5.35;;
60088;SDS011;45961;53.574;55.878;2023-03-03T06:36:04;9.38;;;5.18;;
60088;SDS011;45961;53.574;55.878;2023-03-03T06:38:32;6.75;;;4.63;;
60088;SDS011;45961;53.574;55.878;2023-03-03T06:39:33;10.48;;;5.55;;
60088;SDS011;45961;53.574;55.878;2023-03-03T06:40:34;8.13;;;5.32;;
60088;SDS011;45961;53.574;55.878;2023-03-03T06:41:35;11.15;;;5.35;;
60088;SDS011;45961;53.574;55.878;2023-03-03T06:42:36;6.28;;;5.03;;
60088;SDS011;45961;53.574;55.878;2023-03-03T06:43:37;8.18;;;4.78;;
60088;SDS011;45961;53.574;55.878;2023-03-03T06:44:38;8.52;;;5.53;;
60088;SDS011;45961;53.574;55.878;2023-03-03T06:45:39;10.93;;;5.13;;
60088;SDS011;45961;53.574;55.878;2023-03-03T06:46:40;6.18;;;4.75;;
60088;SDS011;45961;53.574;55.878;2023-03-03T06:47:41;7.85;;;4.43;;
60088;SDS011;45961;53.574;55.878;2023-03-03T06:48:42;10.68;;;4.78;;
60088;SDS011;45961;53.574;55.878;2023-03-03T06:49:43;6.15;;;4.20;;
60088;SDS011;45961;53.574;55.878;2023-03-03T06:50:44;9.73;;;5.15;;
60088;SDS011;45961;53.574;55.878;2023-03-03T06:51:45;12.32;;;5.53;;
60088;SDS011;45961;53.574;55.878;2023-03-03T06:52:46;9.10;;;5.38;;